createdAt,value
2018-07-22T04:00:33.966Z,978.85
2018-07-22T04:01:33.942Z,978.85
2018-07-22T04:02:33.950Z,978.88
2018-07-22T04:03:33.927Z,978.83
2018-07-22T04:04:33.914Z,978.84
2018-07-22T04:05:33.900Z,978.84
2018-07-22T04:06:33.885Z,978.89
2018-07-22T04:07:33.895Z,978.90
2018-07-22T04:08:33.879Z,978.89
2018-07-22T04:09:33.873Z,978.86
2018-07-22T04:10:33.841Z,978.88
2018-07-22T04:11:33.839Z,978.92
2018-07-22T04:12:33.851Z,978.88
2018-07-22T04:13:33.812Z,978.88
2018-07-22T04:14:33.797Z,978.87
2018-07-22T04:15:33.791Z,978.87
2018-07-22T04:16:33.775Z,978.91
2018-07-22T04:17:33.781Z,978.91
2018-07-22T04:18:33.756Z,978.89
2018-07-22T04:19:33.745Z,978.90
2018-07-22T04:20:33.733Z,978.89
2018-07-22T04:21:33.772Z,978.94
2018-07-22T04:22:33.708Z,978.90
2018-07-22T04:23:33.708Z,978.87
2018-07-22T04:24:33.689Z,978.88
2018-07-22T04:25:33.676Z,978.89
2018-07-22T04:26:33.662Z,978.90
2018-07-22T04:27:33.654Z,978.84
2018-07-22T04:28:33.664Z,978.87
2018-07-22T04:29:33.630Z,978.83
2018-07-22T04:30:33.618Z,978.85
2018-07-22T04:31:33.604Z,978.83
2018-07-22T04:32:33.594Z,978.85
2018-07-22T04:33:33.593Z,978.82
2018-07-22T04:34:33.574Z,978.82
2018-07-22T04:35:33.561Z,978.82
2018-07-22T04:36:33.558Z,978.79
2018-07-22T04:37:33.539Z,978.80
2018-07-22T04:38:33.542Z,978.82
2018-07-22T04:39:33.520Z,978.81
2018-07-22T04:40:33.505Z,978.82
2018-07-22T04:41:33.525Z,978.82
2018-07-22T04:42:33.486Z,978.77
2018-07-22T04:43:33.501Z,978.79
2018-07-22T04:44:33.459Z,978.78
2018-07-22T04:45:33.452Z,978.81
2018-07-22T04:46:33.436Z,978.82
2018-07-22T04:47:33.438Z,978.84
2018-07-22T04:48:33.433Z,978.81
2018-07-22T04:49:33.407Z,978.84
2018-07-22T04:50:33.392Z,978.87
2018-07-22T04:51:33.381Z,978.89
2018-07-22T04:52:33.372Z,978.89
2018-07-22T04:53:33.409Z,978.93
2018-07-22T04:54:33.349Z,978.91
2018-07-22T04:55:33.357Z,978.94
2018-07-22T04:56:33.322Z,978.93
2018-07-22T04:57:33.316Z,978.94
2018-07-22T04:58:33.313Z,978.99
2018-07-22T04:59:33.290Z,978.92
2018-07-22T05:00:33.284Z,978.98
2018-07-22T05:01:33.273Z,978.97
2018-07-22T05:02:33.260Z,978.92
2018-07-22T05:03:33.265Z,978.92
2018-07-22T05:04:33.233Z,978.91
2018-07-22T05:05:33.224Z,978.93
2018-07-22T05:06:33.239Z,978.91
2018-07-22T05:07:33.200Z,978.92
2018-07-22T05:08:33.207Z,978.94
2018-07-22T05:09:33.180Z,978.96
2018-07-22T05:10:33.174Z,978.98
2018-07-22T05:11:33.159Z,978.97
2018-07-22T05:12:33.146Z,979.02
2018-07-22T05:13:33.133Z,978.98
2018-07-22T05:14:33.135Z,979.05
2018-07-22T05:15:33.114Z,979.06
2018-07-22T05:16:33.098Z,979.08
2018-07-22T05:17:33.092Z,978.97
2018-07-22T05:18:33.079Z,979.04
2018-07-22T05:19:33.076Z,979.05
2018-07-22T05:20:33.062Z,979.06
2018-07-22T05:21:33.045Z,979.05
2018-07-22T05:22:33.032Z,979.05
2018-07-22T05:23:33.022Z,979.09
2018-07-22T05:24:33.035Z,979.10
2018-07-22T05:25:33.007Z,979.04
2018-07-22T05:26:32.991Z,979.06
2018-07-22T05:27:32.986Z,979.07
2018-07-22T05:28:32.963Z,979.09
2018-07-22T05:29:32.971Z,979.06
2018-07-22T05:30:32.942Z,979.08
2018-07-22T05:31:32.933Z,979.08
2018-07-22T05:32:32.921Z,979.14
2018-07-22T05:33:32.913Z,979.07
2018-07-22T05:34:32.911Z,979.08
2018-07-22T05:35:32.885Z,979.12
2018-07-22T05:36:32.873Z,979.08
2018-07-22T05:37:32.865Z,979.05
2018-07-22T05:38:32.854Z,979.12
2018-07-22T05:39:32.860Z,979.09
2018-07-22T05:40:32.833Z,979.10
2018-07-22T05:41:32.838Z,979.13
2018-07-22T05:42:32.818Z,979.12
2018-07-22T05:43:32.797Z,979.14
2018-07-22T05:44:32.812Z,979.12
2018-07-22T05:45:32.772Z,979.12
2018-07-22T05:46:32.800Z,979.12
2018-07-22T05:47:32.753Z,979.05
2018-07-22T05:48:32.742Z,979.07
2018-07-22T05:49:32.747Z,979.09
2018-07-22T05:50:32.715Z,979.12
2018-07-22T05:51:32.704Z,979.12
2018-07-22T05:52:32.695Z,979.16
2018-07-22T05:53:32.697Z,979.09
2018-07-22T05:54:32.697Z,979.13
2018-07-22T05:55:32.661Z,979.15
2018-07-22T05:56:32.651Z,979.09
2018-07-22T05:57:32.643Z,979.13
2018-07-22T05:58:32.626Z,979.16
2018-07-22T05:59:32.618Z,979.15
2018-07-22T06:00:32.640Z,979.17
2018-07-22T06:01:32.592Z,979.17
2018-07-22T06:02:32.587Z,979.15
2018-07-22T06:03:32.575Z,979.15
2018-07-22T06:04:32.585Z,979.15
2018-07-22T06:05:32.560Z,979.14
2018-07-22T06:06:32.537Z,979.15
2018-07-22T06:07:32.526Z,979.15
2018-07-22T06:08:32.517Z,979.15
2018-07-22T06:09:32.511Z,979.15
2018-07-22T06:10:32.502Z,979.14
2018-07-22T06:11:32.484Z,979.13
2018-07-22T06:12:32.473Z,979.18
2018-07-22T06:13:32.457Z,979.19
2018-07-22T06:14:32.450Z,979.19
2018-07-22T06:15:32.448Z,979.18
2018-07-22T06:16:32.428Z,979.18
2018-07-22T06:17:32.431Z,979.17
2018-07-22T06:18:32.404Z,979.19
2018-07-22T06:19:32.393Z,979.19
2018-07-22T06:20:32.399Z,979.21
2018-07-22T06:21:32.370Z,979.19
2018-07-22T06:22:32.365Z,979.17
2018-07-22T06:23:32.411Z,979.16
2018-07-22T06:24:32.334Z,979.18
2018-07-22T06:25:32.342Z,979.20
2018-07-22T06:26:32.312Z,979.20
2018-07-22T06:27:32.317Z,979.15
2018-07-22T06:28:32.321Z,979.19
2018-07-22T06:29:32.279Z,979.24
2018-07-22T06:30:32.330Z,979.19
2018-07-22T06:31:32.257Z,979.21
2018-07-22T06:32:32.288Z,979.24
2018-07-22T06:33:32.239Z,979.18
2018-07-22T06:34:32.253Z,979.23
2018-07-22T06:35:32.221Z,979.24
2018-07-22T06:36:32.208Z,979.24
2018-07-22T06:37:32.193Z,979.24
2018-07-22T06:38:32.180Z,979.22
2018-07-22T06:39:32.170Z,979.21
2018-07-22T06:40:32.168Z,979.21
2018-07-22T06:41:32.147Z,979.24
2018-07-22T06:42:32.172Z,979.27
2018-07-22T06:43:32.119Z,979.31
2018-07-22T06:44:32.122Z,979.25
2018-07-22T06:45:32.115Z,979.27
2018-07-22T06:46:32.155Z,979.32
2018-07-22T06:47:32.076Z,979.27
2018-07-22T06:48:32.064Z,979.29
2018-07-22T06:49:32.054Z,979.26
2018-07-22T06:50:32.041Z,979.31
2018-07-22T06:51:32.044Z,979.28
2018-07-22T06:52:32.019Z,979.24
2018-07-22T06:53:32.066Z,979.28
2018-07-22T06:54:31.998Z,979.25
2018-07-22T06:55:31.988Z,979.28
2018-07-22T06:56:31.989Z,979.29
2018-07-22T06:57:31.962Z,979.28
2018-07-22T06:58:31.952Z,979.28
2018-07-22T06:59:31.943Z,979.31
2018-07-22T07:00:31.930Z,979.31
2018-07-22T07:01:31.929Z,979.35
2018-07-22T07:02:31.909Z,979.34
2018-07-22T07:03:31.896Z,979.36
2018-07-22T07:04:31.895Z,979.35
2018-07-22T07:05:31.876Z,979.41
2018-07-22T07:06:31.880Z,979.37
2018-07-22T07:07:31.850Z,979.34
2018-07-22T07:08:31.885Z,979.40
2018-07-22T07:09:31.831Z,979.39
2018-07-22T07:10:31.830Z,979.39
2018-07-22T07:11:31.819Z,979.42
2018-07-22T07:12:31.797Z,979.41
2018-07-22T07:13:31.793Z,979.41
2018-07-22T07:14:31.775Z,979.40
2018-07-22T07:15:31.762Z,979.41
2018-07-22T07:16:31.766Z,979.37
2018-07-22T07:17:31.742Z,979.39
2018-07-22T07:18:31.727Z,979.39
2018-07-22T07:19:31.714Z,979.38
2018-07-22T07:20:31.707Z,979.42
2018-07-22T07:21:31.710Z,979.43
2018-07-22T07:22:31.684Z,979.40
2018-07-22T07:23:31.690Z,979.40
2018-07-22T07:24:31.665Z,979.45
2018-07-22T07:25:31.649Z,979.44
2018-07-22T07:26:31.651Z,979.45
2018-07-22T07:27:31.645Z,979.43
2018-07-22T07:28:31.618Z,979.49
2018-07-22T07:29:31.607Z,979.42
2018-07-22T07:30:31.596Z,979.47
2018-07-22T07:31:31.604Z,979.43
2018-07-22T07:32:31.572Z,979.47
2018-07-22T07:33:31.583Z,979.45
2018-07-22T07:34:31.552Z,979.45
2018-07-22T07:35:31.537Z,979.40
2018-07-22T07:36:31.525Z,979.45
2018-07-22T07:37:31.529Z,979.39
2018-07-22T07:38:31.505Z,979.40
2018-07-22T07:39:31.490Z,979.43
2018-07-22T07:40:31.484Z,979.45
2018-07-22T07:41:31.476Z,979.45
2018-07-22T07:42:31.470Z,979.41
2018-07-22T07:43:31.461Z,979.38
2018-07-22T07:44:31.436Z,979.40
2018-07-22T07:45:31.423Z,979.45
2018-07-22T07:46:31.412Z,979.44
2018-07-22T07:47:31.419Z,979.41
2018-07-22T07:48:31.391Z,979.43
2018-07-22T07:49:31.400Z,979.49
2018-07-22T07:50:31.416Z,979.45
2018-07-22T07:51:31.358Z,979.46
2018-07-22T07:52:31.364Z,979.46
2018-07-22T07:53:31.428Z,979.45
2018-07-22T07:54:31.323Z,979.44
2018-07-22T07:55:31.314Z,979.52
2018-07-22T07:56:31.303Z,979.49
2018-07-22T07:57:31.303Z,979.53
2018-07-22T07:58:31.281Z,979.48
2018-07-22T07:59:31.270Z,979.49
2018-07-22T08:00:31.258Z,979.52
2018-07-22T08:01:31.245Z,979.49
2018-07-22T08:02:31.250Z,979.52
2018-07-22T08:03:31.229Z,979.55
2018-07-22T08:04:31.233Z,979.58
2018-07-22T08:05:31.248Z,979.59
2018-07-22T08:06:31.189Z,979.54
2018-07-22T08:07:31.188Z,979.53
2018-07-22T08:08:31.172Z,979.50
2018-07-22T08:09:31.187Z,979.54
2018-07-22T08:10:31.151Z,979.61
2018-07-22T08:11:31.130Z,979.53
2018-07-22T08:12:31.136Z,979.58
2018-07-22T08:13:31.111Z,979.52
2018-07-22T08:14:31.101Z,979.45
2018-07-22T08:15:31.090Z,979.48
2018-07-22T08:16:31.095Z,979.50
2018-07-22T08:17:31.134Z,979.46
2018-07-22T08:18:31.056Z,979.50
2018-07-22T08:19:31.043Z,979.50
2018-07-22T08:20:31.039Z,979.46
2018-07-22T08:21:31.071Z,979.46
2018-07-22T08:22:31.009Z,979.49
2018-07-22T08:23:31.007Z,979.50
2018-07-22T08:24:30.986Z,979.56
2018-07-22T08:25:30.975Z,979.51
2018-07-22T08:26:30.979Z,979.54
2018-07-22T08:27:30.953Z,979.52
2018-07-22T08:28:30.955Z,979.54
2018-07-22T08:29:30.935Z,979.55
2018-07-22T08:30:30.940Z,979.57
2018-07-22T08:31:30.907Z,979.56
2018-07-22T08:32:30.897Z,979.54
2018-07-22T08:33:31.050Z,979.56
2018-07-22T08:34:30.877Z,979.50
2018-07-22T08:35:30.864Z,979.55
2018-07-22T08:36:30.879Z,979.54
2018-07-22T08:37:30.882Z,979.57
2018-07-22T08:38:30.845Z,979.56
2018-07-22T08:39:30.820Z,979.55
2018-07-22T08:40:30.815Z,979.59
2018-07-22T08:41:30.815Z,979.56
2018-07-22T08:42:30.786Z,979.64
2018-07-22T08:43:30.790Z,979.58
2018-07-22T08:44:30.808Z,979.58
2018-07-22T08:45:30.931Z,979.58
2018-07-22T08:46:30.741Z,979.56
2018-07-22T08:47:30.836Z,979.60
2018-07-22T08:48:30.730Z,979.57
2018-07-22T08:49:30.710Z,979.58
2018-07-22T08:50:30.698Z,979.59
2018-07-22T08:51:30.682Z,979.56
2018-07-22T08:52:30.674Z,979.56
2018-07-22T08:53:30.676Z,979.57
2018-07-22T08:54:30.650Z,979.54
2018-07-22T08:55:30.641Z,979.55
2018-07-22T08:56:30.630Z,979.56
2018-07-22T08:57:30.619Z,979.54
2018-07-22T08:58:31.934Z,979.53
2018-07-22T08:59:30.597Z,979.53
2018-07-22T09:00:30.692Z,979.54
2018-07-22T09:01:30.574Z,979.55
2018-07-22T09:02:30.564Z,979.56
2018-07-22T09:03:30.560Z,979.59
2018-07-22T09:04:30.538Z,979.57
2018-07-22T09:05:30.567Z,979.54
2018-07-22T09:06:30.522Z,979.57
2018-07-22T09:07:30.512Z,979.61
2018-07-22T09:08:30.512Z,979.60
2018-07-22T09:09:30.489Z,979.59
2018-07-22T09:10:30.479Z,979.62
2018-07-22T09:11:30.459Z,979.60
2018-07-22T09:12:30.447Z,979.61
2018-07-22T09:13:30.469Z,979.62
2018-07-22T09:14:30.425Z,979.63
2018-07-22T09:15:30.415Z,979.66
2018-07-22T09:16:30.408Z,979.66
2018-07-22T09:17:30.404Z,979.66
2018-07-22T09:18:30.380Z,979.69
2018-07-22T09:19:30.391Z,979.69
2018-07-22T09:20:30.358Z,979.70
2018-07-22T09:21:30.360Z,979.73
2018-07-22T09:22:30.338Z,979.66
2018-07-22T09:23:30.326Z,979.70
2018-07-22T09:24:30.359Z,979.66
2018-07-22T09:25:30.305Z,979.68
2018-07-22T09:26:30.346Z,979.69
2018-07-22T09:27:30.317Z,979.68
2018-07-22T09:28:30.269Z,979.71
2018-07-22T09:29:30.275Z,979.73
2018-07-22T09:30:30.250Z,979.70
2018-07-22T09:31:30.239Z,979.66
2018-07-22T09:32:30.224Z,979.68
2018-07-22T09:33:30.216Z,979.69
2018-07-22T09:34:30.213Z,979.73
2018-07-22T09:35:30.199Z,979.73
2018-07-22T09:36:30.219Z,979.76
2018-07-22T09:37:30.174Z,979.74
2018-07-22T09:38:30.156Z,979.77
2018-07-22T09:39:30.156Z,979.78
2018-07-22T09:40:30.137Z,979.74
2018-07-22T09:41:30.127Z,979.76
2018-07-22T09:42:30.114Z,979.72
2018-07-22T09:43:30.104Z,979.79
2018-07-22T09:44:30.148Z,979.72
2018-07-22T09:45:30.084Z,979.76
2018-07-22T09:46:30.091Z,979.75
2018-07-22T09:47:30.057Z,979.68
2018-07-22T09:48:30.048Z,979.71
2018-07-22T09:49:30.047Z,979.71
2018-07-22T09:50:30.023Z,979.75
2018-07-22T09:51:30.010Z,979.70
2018-07-22T09:52:30.007Z,979.70
2018-07-22T09:53:29.989Z,979.69
2018-07-22T09:54:29.996Z,979.68
2018-07-22T09:55:29.969Z,979.73
2018-07-22T09:56:29.953Z,979.76
2018-07-22T09:57:29.947Z,979.68
2018-07-22T09:58:29.942Z,979.76
2018-07-22T09:59:29.940Z,979.70
2018-07-22T10:00:29.910Z,979.71
2018-07-22T10:01:29.902Z,979.67
2018-07-22T10:02:29.893Z,979.72
2018-07-22T10:03:29.881Z,979.69
2018-07-22T10:04:29.885Z,979.70
2018-07-22T10:05:29.870Z,979.70
2018-07-22T10:06:29.847Z,979.69
2018-07-22T10:07:29.846Z,979.72
2018-07-22T10:08:29.834Z,979.76
2018-07-22T10:09:29.809Z,979.74
2018-07-22T10:10:29.811Z,979.75
2018-07-22T10:11:29.787Z,979.73
2018-07-22T10:12:29.790Z,979.71
2018-07-22T10:13:29.763Z,979.72
2018-07-22T10:14:29.840Z,979.72
2018-07-22T10:15:29.754Z,979.72
2018-07-22T10:16:29.739Z,979.76
2018-07-22T10:17:29.759Z,979.76
2018-07-22T10:18:29.714Z,979.74
2018-07-22T10:19:29.699Z,979.72
2018-07-22T10:20:29.697Z,979.75
2018-07-22T10:21:29.936Z,979.73
2018-07-22T10:22:29.677Z,979.74
2018-07-22T10:23:29.774Z,979.74
2018-07-22T10:24:29.643Z,979.76
2018-07-22T10:25:29.683Z,979.70
2018-07-22T10:26:29.620Z,979.74
2018-07-22T10:27:29.656Z,979.71
2018-07-22T10:28:29.728Z,979.75
2018-07-22T10:29:29.590Z,979.74
2018-07-22T10:30:29.587Z,979.74
2018-07-22T10:31:29.574Z,979.75
2018-07-22T10:32:29.554Z,979.76
2018-07-22T10:33:29.544Z,979.75
2018-07-22T10:34:29.535Z,979.73
2018-07-22T10:35:29.532Z,979.76
2018-07-22T10:36:29.506Z,979.77
2018-07-22T10:37:29.498Z,979.80
2018-07-22T10:38:29.555Z,979.75
2018-07-22T10:39:29.500Z,979.75
2018-07-22T10:40:29.477Z,979.77
2018-07-22T10:41:29.452Z,979.74
2018-07-22T10:42:29.441Z,979.75
2018-07-22T10:43:29.453Z,979.77
2018-07-22T10:44:29.419Z,979.76
2018-07-22T10:45:29.588Z,979.78
2018-07-22T10:46:29.396Z,979.78
2018-07-22T10:47:29.384Z,979.81
2018-07-22T10:48:29.375Z,979.80
2018-07-22T10:49:29.367Z,979.78
2018-07-22T10:50:29.367Z,979.76
2018-07-22T10:51:29.536Z,979.80
2018-07-22T10:52:29.335Z,979.79
2018-07-22T10:53:29.396Z,979.72
2018-07-22T10:54:29.311Z,979.78
2018-07-22T10:55:29.297Z,979.74
2018-07-22T10:56:29.297Z,979.74
2018-07-22T10:57:29.273Z,979.78
2018-07-22T10:58:29.262Z,979.77
2018-07-22T10:59:29.314Z,979.78
2018-07-22T11:00:29.243Z,979.78
2018-07-22T11:01:29.241Z,979.75
2018-07-22T11:02:29.288Z,979.77
2018-07-22T11:03:29.213Z,979.81
2018-07-22T11:04:29.194Z,979.74
2018-07-22T11:05:29.185Z,979.72
2018-07-22T11:06:29.185Z,979.74
2018-07-22T11:07:29.167Z,979.79
2018-07-22T11:08:29.151Z,979.75
2018-07-22T11:09:29.144Z,979.78
2018-07-22T11:10:29.130Z,979.77
2018-07-22T11:11:29.132Z,979.78
2018-07-22T11:12:29.117Z,979.81
2018-07-22T11:13:29.094Z,979.78
2018-07-22T11:14:29.159Z,979.80
2018-07-22T11:15:29.072Z,979.73
2018-07-22T11:16:29.093Z,979.76
2018-07-22T11:17:29.164Z,979.75
2018-07-22T11:18:29.040Z,979.77
2018-07-22T11:19:29.028Z,979.74
2018-07-22T11:20:29.018Z,979.72
2018-07-22T11:21:29.074Z,979.72
2018-07-22T11:22:28.992Z,979.73
2018-07-22T11:23:28.987Z,979.71
2018-07-22T11:24:28.972Z,979.73
2018-07-22T11:25:28.960Z,979.73
2018-07-22T11:26:28.964Z,979.74
2018-07-22T11:27:28.964Z,979.72
2018-07-22T11:28:28.931Z,979.76
2018-07-22T11:29:28.920Z,979.75
2018-07-22T11:30:28.908Z,979.76
2018-07-22T11:31:28.904Z,979.77
2018-07-22T11:32:28.889Z,979.79
2018-07-22T11:33:28.871Z,979.76
2018-07-22T11:34:28.860Z,979.77
2018-07-22T11:35:28.849Z,979.74
2018-07-22T11:36:28.879Z,979.76
2018-07-22T11:37:28.875Z,979.74
2018-07-22T11:38:28.818Z,979.75
2018-07-22T11:39:28.807Z,979.77
2018-07-22T11:40:28.798Z,979.75
2018-07-22T11:41:28.813Z,979.75
2018-07-22T11:42:28.785Z,979.73
2018-07-22T11:43:28.809Z,979.73
2018-07-22T11:44:28.750Z,979.76
2018-07-22T11:45:28.739Z,979.76
2018-07-22T11:46:28.841Z,979.76
2018-07-22T11:47:28.731Z,979.72
2018-07-22T11:48:28.703Z,979.73
2018-07-22T11:49:28.698Z,979.75
2018-07-22T11:50:28.776Z,979.75
2018-07-22T11:51:28.677Z,979.81
2018-07-22T11:52:28.668Z,979.79
2018-07-22T11:53:28.650Z,979.80
2018-07-22T11:54:28.637Z,979.76
2018-07-22T11:55:28.632Z,979.77
2018-07-22T11:56:28.617Z,979.78
2018-07-22T11:57:28.616Z,979.77
2018-07-22T11:58:28.591Z,979.78
2018-07-22T11:59:28.584Z,979.78
2018-07-22T12:00:28.576Z,979.83
2018-07-22T12:01:28.598Z,979.82
2018-07-22T12:02:28.573Z,979.81
2018-07-22T12:03:28.539Z,979.86
2018-07-22T12:04:28.525Z,979.81
2018-07-22T12:05:28.522Z,979.81
2018-07-22T12:06:28.506Z,979.84
2018-07-22T12:07:28.638Z,979.80
2018-07-22T12:08:28.482Z,979.76
2018-07-22T12:09:28.470Z,979.71
2018-07-22T12:10:28.460Z,979.76
2018-07-22T12:11:28.455Z,979.76
2018-07-22T12:12:28.529Z,979.76
2018-07-22T12:13:28.424Z,979.75
2018-07-22T12:14:28.416Z,979.74
2018-07-22T12:15:28.409Z,979.79
2018-07-22T12:16:28.412Z,979.79
2018-07-22T12:17:28.394Z,979.78
2018-07-22T12:18:28.369Z,979.77
2018-07-22T12:19:28.368Z,979.78
2018-07-22T12:20:28.348Z,979.79
2018-07-22T12:21:28.337Z,979.73
2018-07-22T12:22:28.325Z,979.74
2018-07-22T12:23:28.327Z,979.78
2018-07-22T12:24:28.302Z,979.75
2018-07-22T12:25:28.292Z,979.78
2018-07-22T12:26:28.279Z,979.73
2018-07-22T12:27:28.283Z,979.81
2018-07-22T12:28:28.268Z,979.72
2018-07-22T12:29:28.245Z,979.73
2018-07-22T12:30:28.236Z,979.75
2018-07-22T12:31:28.227Z,979.75
2018-07-22T12:32:28.218Z,979.72
2018-07-22T12:33:28.214Z,979.76
2018-07-22T12:34:28.353Z,979.79
2018-07-22T12:35:28.180Z,979.73
2018-07-22T12:36:28.167Z,979.72
2018-07-22T12:37:28.156Z,979.76
2018-07-22T12:38:28.158Z,979.76
2018-07-22T12:39:28.135Z,979.73
2018-07-22T12:40:28.190Z,979.75
2018-07-22T12:41:28.114Z,979.72
2018-07-22T12:42:28.103Z,979.74
2018-07-22T12:43:28.112Z,979.72
2018-07-22T12:44:28.078Z,979.72
2018-07-22T12:45:28.067Z,979.76
2018-07-22T12:46:28.098Z,979.75
2018-07-22T12:47:28.047Z,979.71
2018-07-22T12:48:28.060Z,979.70
2018-07-22T12:49:28.029Z,979.70
2018-07-22T12:50:28.017Z,979.73
2018-07-22T12:51:28.002Z,979.74
2018-07-22T12:52:27.991Z,979.73
2018-07-22T12:53:27.990Z,979.70
2018-07-22T12:54:27.969Z,979.73
2018-07-22T12:55:27.957Z,979.70
2018-07-22T12:56:27.945Z,979.67
2018-07-22T12:57:27.939Z,979.68
2018-07-22T12:58:27.937Z,979.66
2018-07-22T12:59:27.912Z,979.66
2018-07-22T13:00:27.900Z,979.70
2018-07-22T13:01:27.891Z,979.66
2018-07-22T13:02:27.881Z,979.65
2018-07-22T13:03:27.903Z,979.67
2018-07-22T13:04:27.857Z,979.68
2018-07-22T13:05:27.848Z,979.67
2018-07-22T13:06:27.840Z,979.65
2018-07-22T13:07:27.825Z,979.63
2018-07-22T13:08:27.810Z,979.61
2018-07-22T13:09:27.814Z,979.66
2018-07-22T13:10:27.792Z,979.62
2018-07-22T13:11:27.780Z,979.64
2018-07-22T13:12:27.768Z,979.61
2018-07-22T13:13:27.757Z,979.60
2018-07-22T13:14:27.756Z,979.63
2018-07-22T13:15:27.735Z,979.57
2018-07-22T13:16:27.726Z,979.58
2018-07-22T13:17:27.712Z,979.57
2018-07-22T13:18:27.706Z,979.57
2018-07-22T13:19:27.707Z,979.62
2018-07-22T13:20:27.697Z,979.58
2018-07-22T13:21:27.666Z,979.58
2018-07-22T13:22:27.655Z,979.61
2018-07-22T13:23:27.648Z,979.59
2018-07-22T13:24:27.646Z,979.57
2018-07-22T13:25:27.631Z,979.58
2018-07-22T13:26:27.612Z,979.57
2018-07-22T13:27:27.612Z,979.59
2018-07-22T13:28:27.596Z,979.57
2018-07-22T13:29:27.589Z,979.59
2018-07-22T13:30:27.570Z,979.59
2018-07-22T13:31:27.554Z,979.51
2018-07-22T13:32:27.548Z,979.51
2018-07-22T13:33:27.531Z,979.54
2018-07-22T13:34:27.534Z,979.58
2018-07-22T13:35:27.512Z,979.57
2018-07-22T13:36:27.498Z,979.60
2018-07-22T13:37:27.489Z,979.59
2018-07-22T13:38:27.536Z,979.58
2018-07-22T13:39:27.478Z,979.60
2018-07-22T13:40:27.468Z,979.59
2018-07-22T13:41:27.443Z,979.59
2018-07-22T13:42:27.435Z,979.64
2018-07-22T13:43:27.433Z,979.63
2018-07-22T13:44:27.420Z,979.60
2018-07-22T13:45:27.477Z,979.61
2018-07-22T13:46:27.396Z,979.67
2018-07-22T13:47:27.376Z,979.59
2018-07-22T13:48:27.364Z,979.65
2018-07-22T13:49:27.369Z,979.58
2018-07-22T13:50:27.346Z,979.57
2018-07-22T13:51:27.335Z,979.58
2018-07-22T13:52:27.319Z,979.56
2018-07-22T13:53:27.321Z,979.57
2018-07-22T13:54:27.299Z,979.58
2018-07-22T13:55:27.301Z,979.57
2018-07-22T13:56:27.277Z,979.59
2018-07-22T13:57:27.265Z,979.58
2018-07-22T13:58:27.253Z,979.59
2018-07-22T13:59:27.245Z,979.56
2018-07-22T14:00:27.333Z,979.62
2018-07-22T14:01:27.221Z,979.55
2018-07-22T14:02:27.211Z,979.60
2018-07-22T14:03:27.196Z,979.61
2018-07-22T14:04:27.186Z,979.60
2018-07-22T14:05:27.187Z,979.62
2018-07-22T14:06:27.165Z,979.60
2018-07-22T14:07:27.154Z,979.60
2018-07-22T14:08:27.142Z,979.60
2018-07-22T14:09:27.129Z,979.58
2018-07-22T14:10:27.137Z,979.55
2018-07-22T14:11:27.111Z,979.59
2018-07-22T14:12:27.101Z,979.59
2018-07-22T14:13:27.096Z,979.62
2018-07-22T14:14:27.077Z,979.61
2018-07-22T14:15:27.076Z,979.67
2018-07-22T14:16:27.051Z,979.66
2018-07-22T14:17:27.041Z,979.59
2018-07-22T14:18:27.037Z,979.64
2018-07-22T14:19:27.021Z,979.63
2018-07-22T14:20:27.052Z,979.66
2018-07-22T14:21:26.997Z,979.65
2018-07-22T14:22:26.983Z,979.63
2018-07-22T14:23:26.974Z,979.62
2018-07-22T14:24:26.966Z,979.64
2018-07-22T14:25:26.970Z,979.59
2018-07-22T14:26:26.960Z,979.62
2018-07-22T14:27:26.935Z,979.65
2018-07-22T14:28:26.922Z,979.62
2018-07-22T14:29:26.912Z,979.60
2018-07-22T14:30:26.919Z,979.60
2018-07-22T14:31:26.888Z,979.55
2018-07-22T14:32:26.872Z,979.58
2018-07-22T14:33:26.868Z,979.59
2018-07-22T14:34:26.862Z,979.59
2018-07-22T14:35:26.862Z,979.56
2018-07-22T14:36:26.829Z,979.58
2018-07-22T14:37:26.832Z,979.56
2018-07-22T14:38:26.817Z,979.59
2018-07-22T14:39:26.808Z,979.58
2018-07-22T14:40:26.786Z,979.57
2018-07-22T14:41:26.792Z,979.59
2018-07-22T14:42:26.774Z,979.56
2018-07-22T14:43:26.750Z,979.58
2018-07-22T14:44:26.737Z,979.62
2018-07-22T14:45:26.738Z,979.58
2018-07-22T14:46:26.734Z,979.59
2018-07-22T14:47:26.707Z,979.51
2018-07-22T14:48:26.700Z,979.54
2018-07-22T14:49:26.683Z,979.52
2018-07-22T14:50:26.671Z,979.54
2018-07-22T14:51:26.671Z,979.55
2018-07-22T14:52:26.673Z,979.55
2018-07-22T14:53:26.658Z,979.57
2018-07-22T14:54:26.629Z,979.57
2018-07-22T14:55:26.618Z,979.62
2018-07-22T14:56:26.623Z,979.62
2018-07-22T14:57:26.596Z,979.62
2018-07-22T14:58:26.584Z,979.64
2018-07-22T14:59:26.576Z,979.63
2018-07-22T15:00:26.636Z,979.63
2018-07-22T15:01:26.562Z,979.61
2018-07-22T15:02:26.539Z,979.64
2018-07-22T15:03:26.527Z,979.64
2018-07-22T15:04:26.542Z,979.63
2018-07-22T15:05:26.510Z,979.68
2018-07-22T15:06:26.506Z,979.68
2018-07-22T15:07:26.484Z,979.66
2018-07-22T15:08:26.473Z,979.69
2018-07-22T15:09:26.460Z,979.69
2018-07-22T15:10:26.450Z,979.71
2018-07-22T15:11:26.457Z,979.68
2018-07-22T15:12:26.427Z,979.74
2018-07-22T15:13:26.418Z,979.66
2018-07-22T15:14:26.406Z,979.70
2018-07-22T15:15:26.395Z,979.70
2018-07-22T15:16:26.395Z,979.66
2018-07-22T15:17:26.437Z,979.62
2018-07-22T15:18:26.364Z,979.67
2018-07-22T15:19:26.374Z,979.66
2018-07-22T15:20:26.342Z,979.71
2018-07-22T15:21:26.353Z,979.67
2018-07-22T15:22:26.327Z,979.67
2018-07-22T15:23:26.312Z,979.66
2018-07-22T15:24:26.296Z,979.65
2018-07-22T15:25:26.283Z,979.67
2018-07-22T15:26:26.273Z,979.69
2018-07-22T15:27:26.314Z,979.67
2018-07-22T15:28:26.253Z,979.66
2018-07-22T15:29:26.283Z,979.62
2018-07-22T15:30:28.277Z,979.62
2018-07-22T15:31:26.218Z,979.59
2018-07-22T15:32:26.218Z,979.59
2018-07-22T15:33:26.198Z,979.65
2018-07-22T15:34:26.185Z,979.61
2018-07-22T15:35:26.278Z,979.65
2018-07-22T15:36:26.161Z,979.63
2018-07-22T15:37:26.405Z,979.63
2018-07-22T15:38:26.140Z,979.63
2018-07-22T15:39:26.426Z,979.62
2018-07-22T15:40:29.141Z,979.59
2018-07-22T15:41:27.860Z,979.63
2018-07-22T15:42:26.108Z,979.63
2018-07-22T15:43:26.085Z,979.65
2018-07-22T15:44:26.073Z,979.60
2018-07-22T15:45:26.065Z,979.64
2018-07-22T15:46:26.049Z,979.63
2018-07-22T15:47:26.049Z,979.62
2018-07-22T15:48:26.036Z,979.67
2018-07-22T15:49:26.026Z,979.64
2018-07-22T15:50:26.008Z,979.64
2018-07-22T15:51:25.992Z,979.62
2018-07-22T15:52:25.993Z,979.66
2018-07-22T15:53:25.972Z,979.64
2018-07-22T15:54:25.961Z,979.62
2018-07-22T15:55:26.152Z,979.63
2018-07-22T15:56:25.939Z,979.58
2018-07-22T15:57:25.942Z,979.58
2018-07-22T15:58:25.925Z,979.58
2018-07-22T15:59:25.902Z,979.60
2018-07-22T16:00:25.892Z,979.59
2018-07-22T16:01:25.887Z,979.60
2018-07-22T16:02:25.887Z,979.58
2018-07-22T16:03:25.861Z,979.56
2018-07-22T16:04:25.852Z,979.58
2018-07-22T16:05:25.838Z,979.57
2018-07-22T16:06:25.827Z,979.64
2018-07-22T16:07:25.828Z,979.59
2018-07-22T16:08:25.809Z,979.61
2018-07-22T16:09:25.794Z,979.62
2018-07-22T16:10:25.781Z,979.61
2018-07-22T16:11:25.772Z,979.67
2018-07-22T16:12:25.786Z,979.68
2018-07-22T16:13:25.747Z,979.70
2018-07-22T16:14:25.741Z,979.66
2018-07-22T16:15:25.731Z,979.64
2018-07-22T16:16:25.717Z,979.69
2018-07-22T16:17:25.702Z,979.71
2018-07-22T16:18:25.704Z,979.66
2018-07-22T16:19:25.680Z,979.68
2018-07-22T16:20:25.672Z,979.68
2018-07-22T16:21:25.657Z,979.68
2018-07-22T16:22:25.649Z,979.68
2018-07-22T16:23:25.645Z,979.71
2018-07-22T16:24:25.624Z,979.67
2018-07-22T16:25:25.617Z,979.68
2018-07-22T16:26:25.606Z,979.71
2018-07-22T16:27:25.592Z,979.71
2018-07-22T16:28:25.598Z,979.66